LETO

Torrejón Airport

Madrid, Spain
TAF AMD LETO 170209Z 1702/1724 VRB04KT 4900 BR SCT010 BKN040 TX10/1716Z TNM03/1706Z PROB40 TEMPO 1703/1710 3500 BR TEMPO 1713/1717 03010KT
Issued Valid From Valid To
Jan-17 @ 02:09 UTC
(3 hours ago)
Jan-17 @ 02:00 UTC
(3 hours ago)
Jan-18 @ 00:00 UTC
(in 19 hours)
Jan-17 @ 02:00 to Jan-18 @ 00:00
TAF AMD LETO 170209Z 1702/1724 VRB04KT 4900 BR SCT010 BKN040 TX10/1716Z TNM03/1706Z
Wind Visibility Clouds Conditions
Variable at 4 knots 4,892 meters
  • Scattered at 1,000' AGL
  • Broken at 4,000' AGL
  • Mist
Temporary  (Probability 40%) Jan-17 @ 03:00 to Jan-17 @ 10:00
PROB40 TEMPO 1703/1710 3500 BR
Visibility Conditions
3,492 meters
  • Mist
Temporary Jan-17 @ 13:00 to Jan-17 @ 17:00
TEMPO 1713/1717 03010KT
Wind
30° at 10 knots
TAF AMD LETO 170209Z 1702/1724 VRB04KT 4900 BR SCT010 BKN040 TX10/1716Z TNM03/1706Z PROB40 TEMPO 1703/1710 3500 BR TEMPO 1713/1717 03010KT
Issued Jan-17 @ 02:09 UTC
(3 hours ago)
Valid From Jan-17 @ 02:00 UTC
(3 hours ago)
Valid To Jan-18 @ 00:00 UTC
(in 19 hours)
Jan-17 @ 02:00 - Jan-18 @ 00:00
Wind Visibility
Variable at 4 knots 4,892 meters
Clouds
  • Scattered at 1,000' AGL
  • Broken at 4,000' AGL
Conditions
  • Mist
Probability 40% Temporary Jan-17 @ 03:00 - Jan-17 @ 10:00
Conditions
  • Mist
Temporary Jan-17 @ 13:00 - Jan-17 @ 17:00
Wind
30° at 10 knots